Time;durP1;ratioP1;P1;durP2;ratioP2;P2;SDS_P1;SDS_P2;PMS_P1;PMS_P2;Temp;Humidity;BMP_temperature;BMP_pressure;BME280_temperature;BME280_humidity;BME280_pressure;Samples;Min_cycle;Max_cycle;Signal;HPM_P1;HPM_P2
2024/02/26 00:03:45;;;;;;;1.73;1.20;;;;;;;6.65;55.25;98163.75;10494105;28;20507;-59
2024/02/26 00:08:47;;;;;;;2.20;1.65;;;;;;;6.69;55.82;98150.44;10509639;28;20048;-60
2024/02/26 00:13:49;;;;;;;2.78;1.55;;;;;;;6.43;56.03;98142.88;10511607;28;20051;-60
2024/02/26 00:19:04;;;;;;;2.55;1.63;;;;;;;6.56;56.89;98146.22;10510908;28;20062;-59
2024/02/26 00:24:31;;;;;;;2.40;1.55;;;;;;;6.52;56.83;98131.81;10496712;28;20509;-60
2024/02/26 00:29:33;;;;;;;6.00;1.60;;;;;;;6.30;56.79;98122.13;10509988;28;20040;-59
2024/02/26 00:34:35;;;;;;;1.50;1.05;;;;;;;6.15;57.26;98113.63;10512418;28;20048;-60
2024/02/26 00:39:37;;;;;;;2.13;1.20;;;;;;;6.22;57.39;98095.84;10512166;28;20522;-59
2024/02/26 00:44:39;;;;;;;3.22;1.30;;;;;;;6.34;57.14;98082.03;10509942;28;20044;-59
2024/02/26 00:49:41;;;;;;;1.73;1.23;;;;;;;6.32;56.62;98082.16;10511323;28;20059;-59
2024/02/26 00:54:43;;;;;;;1.38;0.90;;;;;;;6.23;56.40;98093.16;10512356;28;20047;-59
2024/02/26 00:59:45;;;;;;;1.55;1.00;;;;;;;6.18;56.64;98086.63;10506834;28;20397;-59
2024/02/26 01:04:48;;;;;;;1.13;0.93;;;;;;;6.27;56.48;98078.19;10506238;28;20517;-59
2024/02/26 01:09:50;;;;;;;2.22;1.15;;;;;;;6.24;56.75;98074.06;10512163;28;20052;-59
2024/02/26 01:14:52;;;;;;;4.38;1.02;;;;;;;6.26;56.83;98081.75;10506187;28;20040;-58
2024/02/26 01:19:54;;;;;;;2.60;1.20;;;;;;;5.97;57.84;98055.25;10519365;28;20066;-60
2024/02/26 01:24:56;;;;;;;1.63;1.17;;;;;;;6.21;57.45;98063.03;10518595;28;20047;-60
2024/02/26 01:29:58;;;;;;;2.35;0.88;;;;;;;6.14;57.98;98080.81;10517495;28;20059;-59
2024/02/26 01:35:01;;;;;;;1.73;0.90;;;;;;;6.12;58.45;98080.09;10514804;28;20044;-60
2024/02/26 01:40:06;;;;;;;1.52;1.20;;;;;;;6.17;58.19;98079.75;10514294;28;20138;-60
2024/02/26 01:45:23;;;;;;;2.20;0.98;;;;;;;6.27;57.63;98060.88;10530379;27;20404;-60
2024/02/26 01:50:27;;;;;;;1.90;1.08;;;;;;;6.27;58.16;98083.41;10497179;28;20047;-60
2024/02/26 01:55:29;;;;;;;1.25;0.93;;;;;;;6.33;58.08;98082.94;10517647;28;20093;-60
2024/02/26 02:00:32;;;;;;;1.40;1.00;;;;;;;6.31;57.99;98080.47;10497079;28;20059;-60
2024/02/26 02:05:41;;;;;;;1.17;1.00;;;;;;;6.17;57.86;98080.59;10480229;28;20064;-60
2024/02/26 02:10:44;;;;;;;1.35;0.93;;;;;;;6.12;57.76;98069.72;10517039;28;20048;-60
2024/02/26 02:15:46;;;;;;;1.30;1.00;;;;;;;6.09;58.15;98062.16;10498669;28;20047;-60
2024/02/26 02:20:48;;;;;;;1.65;1.00;;;;;;;6.16;58.23;98080.72;10517611;28;20131;-60
2024/02/26 02:25:51;;;;;;;2.25;1.13;;;;;;;6.28;58.09;98077.28;10515397;28;20032;-60
2024/02/26 02:30:54;;;;;;;1.00;0.98;;;;;;;6.26;57.63;98095.56;10513829;28;20052;-60
2024/02/26 02:35:57;;;;;;;1.45;1.00;;;;;;;6.09;57.20;98097.66;10514930;28;20040;-60
2024/02/26 02:40:59;;;;;;;1.30;1.00;;;;;;;6.23;57.06;98089.72;10517768;28;20093;-60
2024/02/26 02:46:02;;;;;;;1.63;0.80;;;;;;;6.18;57.12;98082.28;10517033;28;20127;-60
2024/02/26 02:51:05;;;;;;;1.98;1.17;;;;;;;6.36;56.85;98085.34;10515704;28;20066;-60
2024/02/26 02:56:07;;;;;;;1.20;0.90;;;;;;;6.37;56.90;98091.38;10495652;28;20055;-60
2024/02/26 03:01:09;;;;;;;1.08;0.90;;;;;;;6.34;56.71;98087.22;10528816;27;20048;-59
2024/02/26 03:06:15;;;;;;;2.05;1.30;;;;;;;6.38;56.71;98106.00;10514923;28;20066;-60
2024/02/26 03:11:17;;;;;;;2.17;1.45;;;;;;;6.33;56.82;98112.34;10490838;28;20062;-60
2024/02/26 03:16:19;;;;;;;1.77;1.00;;;;;;;6.37;56.92;98115.53;10509210;28;20071;-60
2024/02/26 03:21:21;;;;;;;2.60;1.00;;;;;;;6.33;56.83;98119.28;10513033;28;20056;-60
2024/02/26 03:26:23;;;;;;;2.28;1.17;;;;;;;6.29;57.00;98123.06;10498209;28;20048;-60
2024/02/26 03:31:25;;;;;;;2.75;1.85;;;;;;;6.27;56.98;98123.16;10512102;28;20138;-60
2024/02/26 03:36:27;;;;;;;1.25;1.10;;;;;;;6.34;56.90;98119.22;10512822;28;20071;-60
2024/02/26 03:41:31;;;;;;;2.15;1.40;;;;;;;6.21;56.58;98125.31;10509862;28;20047;-60
2024/02/26 03:46:34;;;;;;;2.80;1.20;;;;;;;6.16;56.56;98119.66;10494013;28;20313;-60
2024/02/26 03:51:36;;;;;;;2.42;1.27;;;;;;;6.06;56.94;98109.06;10495241;28;20130;-59
2024/02/26 03:56:38;;;;;;;1.85;1.20;;;;;;;6.15;57.31;98107.59;10495965;28;20047;-59
2024/02/26 04:01:45;;;;;;;1.23;1.08;;;;;;;6.19;57.56;98115.06;10508274;28;20055;-59
2024/02/26 04:06:47;;;;;;;4.60;1.23;;;;;;;6.28;57.72;98119.66;10526234;28;20139;-58
2024/02/26 04:11:50;;;;;;;1.58;1.10;;;;;;;6.34;57.95;98119.22;10511782;28;20048;-59
2024/02/26 04:16:54;;;;;;;3.78;1.25;;;;;;;6.28;57.92;98108.44;10511402;28;20040;-59
2024/02/26 04:21:56;;;;;;;4.80;1.30;;;;;;;6.30;58.07;98115.19;10512747;28;20048;-59
2024/02/26 04:26:58;;;;;;;2.13;1.23;;;;;;;6.40;58.56;98132.69;10527298;28;20062;-59
2024/02/26 04:32:00;;;;;;;2.58;1.50;;;;;;;6.34;58.85;98132.19;10512498;28;20095;-59
2024/02/26 04:37:02;;;;;;;3.03;1.40;;;;;;;6.26;59.36;98125.88;10509289;28;20131;-59
2024/02/26 04:42:04;;;;;;;2.58;1.42;;;;;;;6.16;59.50;98127.44;10494557;28;20324;-59
2024/02/26 04:47:07;;;;;;;2.67;1.38;;;;;;;6.18;59.88;98130.75;10524166;28;20138;-59
2024/02/26 04:52:09;;;;;;;2.63;1.52;;;;;;;6.01;59.90;98134.53;10517296;28;20420;-58
2024/02/26 04:57:11;;;;;;;3.70;1.42;;;;;;;5.90;60.25;98129.22;10504511;28;20050;-58
2024/02/26 05:02:14;;;;;;;2.10;1.45;;;;;;;5.99;60.78;98136.41;10520994;28;20500;-59
2024/02/26 05:07:19;;;;;;;1.77;1.33;;;;;;;6.14;60.72;98137.91;10503480;28;20515;-59
2024/02/26 05:12:21;;;;;;;4.57;1.77;;;;;;;6.19;60.62;98130.63;10521423;28;20052;-59
2024/02/26 05:17:23;;;;;;;2.00;1.33;;;;;;;6.02;60.76;98137.97;10519912;28;20553;-59
2024/02/26 05:22:27;;;;;;;2.83;1.50;;;;;;;5.87;61.38;98139.00;10521351;28;20044;-59
2024/02/26 05:27:29;;;;;;;1.92;1.30;;;;;;;5.78;61.58;98137.88;10484305;28;20075;-59
2024/02/26 05:32:31;;;;;;;1.88;1.25;;;;;;;5.76;61.75;98139.75;10519669;28;20044;-58
2024/02/26 05:37:33;;;;;;;1.15;1.02;;;;;;;5.84;61.80;98142.63;10520189;28;20384;-58
2024/02/26 05:42:35;;;;;;;1.70;1.10;;;;;;;5.76;61.86;98147.53;10519340;28;20044;-60
2024/02/26 05:47:42;;;;;;;2.10;1.33;;;;;;;5.70;62.00;98144.50;10518363;28;20503;-60
2024/02/26 05:52:45;;;;;;;2.90;1.50;;;;;;;5.82;62.00;98157.47;10519632;28;20119;-61
2024/02/26 05:57:47;;;;;;;2.60;1.50;;;;;;;5.84;61.75;98154.78;10515534;28;20503;-59
2024/02/26 06:02:49;;;;;;;3.50;1.83;;;;;;;5.96;61.95;98157.34;10510718;28;20147;-59
2024/02/26 06:07:51;;;;;;;2.97;1.42;;;;;;;6.08;61.99;98160.88;10528704;27;20067;-59
2024/02/26 06:12:53;;;;;;;2.90;1.38;;;;;;;6.13;61.94;98175.19;10518037;28;20051;-60
2024/02/26 06:17:55;;;;;;;3.60;1.50;;;;;;;6.02;61.87;98177.69;10497520;28;20540;-60
2024/02/26 06:22:58;;;;;;;2.55;1.40;;;;;;;6.03;62.30;98183.72;10515381;28;20513;-59
2024/02/26 06:28:00;;;;;;;2.58;1.23;;;;;;;6.08;62.21;98190.22;10497849;28;20032;-60
2024/02/26 06:33:02;;;;;;;1.63;1.10;;;;;;;6.02;62.28;98201.03;10517349;28;20050;-60
2024/02/26 06:38:05;;;;;;;2.88;1.40;;;;;;;5.94;62.21;98208.53;10513345;28;20047;-60
2024/02/26 06:43:07;;;;;;;2.28;1.30;;;;;;;5.63;63.03;98214.13;10514581;28;20035;-60
2024/02/26 06:48:09;;;;;;;2.78;1.58;;;;;;;5.78;63.06;98217.47;10503018;28;20381;-60
2024/02/26 06:53:11;;;;;;;2.67;1.30;;;;;;;5.62;63.09;98222.00;10482510;28;20048;-60
2024/02/26 06:58:14;;;;;;;1.30;1.10;;;;;;;5.40;63.24;98235.56;10501806;28;20515;-59
2024/02/26 07:03:16;;;;;;;2.30;1.50;;;;;;;5.54;63.35;98238.91;10497739;28;20125;-59
2024/02/26 07:08:18;;;;;;;3.08;1.42;;;;;;;5.64;63.30;98240.88;10482774;28;20102;-60
2024/02/26 07:13:20;;;;;;;2.25;1.13;;;;;;;5.66;63.11;98245.03;10498971;28;20086;-60
2024/02/26 07:18:22;;;;;;;3.55;1.40;;;;;;;5.66;63.33;98255.41;10499739;28;20044;-60
2024/02/26 07:23:25;;;;;;;4.80;1.40;;;;;;;5.74;63.45;98257.53;10500567;28;20048;-60
2024/02/26 07:28:27;;;;;;;1.30;1.13;;;;;;;5.76;63.45;98256.47;10501600;28;20085;-60
2024/02/26 07:33:29;;;;;;;3.45;1.48;;;;;;;5.80;63.46;98257.09;10482707;28;20365;-59
2024/02/26 07:38:31;;;;;;;2.30;1.40;;;;;;;5.57;63.68;98261.22;10501064;28;20119;-59
2024/02/26 07:43:44;;;;;;;2.08;1.17;;;;;;;5.54;64.25;98261.41;10502086;28;20043;-60
2024/02/26 07:48:46;;;;;;;2.78;1.50;;;;;;;5.61;63.94;98274.81;10514337;28;20079;-60
2024/02/26 07:53:48;;;;;;;2.83;1.33;;;;;;;5.61;63.88;98275.66;10513229;28;20048;-60
2024/02/26 07:58:50;;;;;;;2.50;1.38;;;;;;;5.61;64.13;98273.06;10509194;28;20071;-60
2024/02/26 08:03:55;;;;;;;3.05;1.98;;;;;;;5.63;64.08;98280.72;10504113;28;20139;-60
2024/02/26 08:08:58;;;;;;;3.33;1.65;;;;;;;5.62;63.95;98285.06;10503539;28;20067;-60
2024/02/26 08:14:00;;;;;;;2.88;1.50;;;;;;;5.48;64.73;98293.75;10486155;28;20052;-60
2024/02/26 08:19:02;;;;;;;2.83;1.30;;;;;;;5.42;64.66;98307.13;10501950;28;20500;-60
2024/02/26 08:24:05;;;;;;;1.98;1.52;;;;;;;5.45;64.96;98309.50;10504155;28;20403;-60
2024/02/26 08:29:07;;;;;;;2.65;1.30;;;;;;;5.51;65.17;98318.66;10472811;28;20054;-60
2024/02/26 08:34:09;;;;;;;2.63;1.23;;;;;;;5.42;64.83;98320.09;10488971;28;20097;-61
2024/02/26 08:39:13;;;;;;;3.42;1.77;;;;;;;5.21;65.47;98326.63;10509156;28;20040;-60
2024/02/26 08:44:16;;;;;;;2.85;1.30;;;;;;;5.19;65.61;98318.13;10505297;28;20051;-60
2024/02/26 08:49:18;;;;;;;1.90;1.27;;;;;;;5.27;65.48;98325.41;10521959;27;20048;-61
2024/02/26 08:54:20;;;;;;;2.63;1.60;;;;;;;5.35;65.67;98325.78;10508104;28;20067;-60
2024/02/26 08:59:23;;;;;;;3.47;1.40;;;;;;;5.46;65.40;98338.84;10505883;28;20184;-60
2024/02/26 09:04:26;;;;;;;2.25;1.25;;;;;;;5.61;65.25;98337.88;10500356;28;20159;-60
2024/02/26 09:09:28;;;;;;;2.85;1.48;;;;;;;5.57;65.12;98341.59;10517806;28;20059;-60
2024/02/26 09:14:30;;;;;;;2.35;1.30;;;;;;;5.72;65.26;98342.34;10502730;28;20063;-61
2024/02/26 09:19:33;;;;;;;5.57;1.33;;;;;;;5.73;64.66;98350.06;10500664;28;20044;-60
2024/02/26 09:24:36;;;;;;;4.28;1.90;;;;;;;5.73;64.97;98341.44;10516855;28;20086;-61
2024/02/26 09:29:38;;;;;;;2.30;1.45;;;;;;;6.04;65.06;98333.31;10509973;28;21561;-60
2024/02/26 09:34:41;;;;;;;2.60;1.40;;;;;;;6.43;64.49;98324.63;10504126;28;20126;-60
2024/02/26 09:39:44;;;;;;;5.22;2.33;;;;;;;6.43;64.17;98340.22;10504521;28;20411;-60
2024/02/26 09:44:51;;;;;;;4.45;1.98;;;;;;;6.67;63.82;98348.91;10463653;28;20142;-52
2024/02/26 09:49:56;;;;;;;3.00;1.85;;;;;;;6.27;63.88;98361.16;10483231;28;20052;-53
2024/02/26 09:54:58;;;;;;;3.78;1.40;;;;;;;6.16;64.29;98363.63;10500022;28;20507;-51
2024/02/26 10:00:05;;;;;;;3.03;1.63;;;;;;;6.24;64.79;98354.41;10505751;28;20036;-53
2024/02/26 10:05:12;;;;;;;2.08;1.48;;;;;;;6.55;64.56;98365.34;10510811;28;20052;-51
2024/02/26 10:10:15;;;;;;;4.18;1.55;;;;;;;6.59;64.29;98366.78;10494527;28;20048;-53
2024/02/26 10:15:17;;;;;;;4.20;1.85;;;;;;;6.68;64.52;98369.59;10509129;28;20047;-54
2024/02/26 10:20:23;;;;;;;3.08;1.40;;;;;;;6.97;63.94;98378.81;10507163;28;20051;-52
2024/02/26 10:25:26;;;;;;;2.42;1.40;;;;;;;7.04;63.34;98389.59;10509363;28;20401;-51
2024/02/26 10:30:28;;;;;;;2.28;1.48;;;;;;;7.02;63.69;98384.50;10508113;28;20575;-50
2024/02/26 10:35:31;;;;;;;3.70;1.67;;;;;;;7.29;63.34;98383.50;10499014;28;20109;-55
2024/02/26 10:40:34;;;;;;;4.65;1.90;;;;;;;7.29;63.31;98384.31;10503821;28;20044;-55
2024/02/26 10:45:37;;;;;;;3.28;1.70;;;;;;;7.41;63.37;98398.22;10505956;28;20456;-53
2024/02/26 10:50:40;;;;;;;3.00;1.65;;;;;;;7.37;63.11;98408.03;10501429;28;20032;-55
2024/02/26 10:56:05;;;;;;;2.28;1.58;;;;;;;7.39;63.19;98400.94;10507693;28;20044;-51
2024/02/26 11:01:09;;;;;;;3.78;1.90;;;;;;;7.21;63.63;98402.25;10507824;28;20050;-49
2024/02/26 11:06:12;;;;;;;3.17;1.67;;;;;;;7.20;63.54;98405.78;10489744;28;20048;-52
2024/02/26 11:11:16;;;;;;;4.80;1.92;;;;;;;7.14;63.57;98416.63;10461934;28;20444;-53
2024/02/26 11:16:21;;;;;;;4.78;1.90;;;;;;;7.21;63.82;98433.44;10463393;28;20040;-53
2024/02/26 11:21:31;;;;;;;7.70;1.92;;;;;;;7.18;63.72;98428.47;10466447;28;20133;-52
2024/02/26 11:26:38;;;;;;;2.47;1.58;;;;;;;7.26;63.83;98439.16;10464726;28;20090;-54
2024/02/26 11:31:41;;;;;;;4.75;1.73;;;;;;;7.26;63.54;98431.38;10461161;28;20074;-50
2024/02/26 11:36:43;;;;;;;3.13;1.70;;;;;;;7.24;63.88;98438.44;10465533;28;20534;-51
2024/02/26 11:41:46;;;;;;;6.13;2.17;;;;;;;7.32;63.31;98435.31;10461281;28;20191;-50
2024/02/26 11:46:48;;;;;;;4.63;1.65;;;;;;;7.18;63.55;98425.88;10462411;28;20047;-49
2024/02/26 11:51:52;;;;;;;3.25;1.77;;;;;;;7.15;63.70;98437.31;10464205;28;20133;-50
2024/02/26 11:56:54;;;;;;;2.83;1.80;;;;;;;7.40;63.31;98436.44;10464540;28;20795;-49
2024/02/26 12:01:57;;;;;;;4.28;2.00;;;;;;;7.45;63.61;98442.13;10463905;28;20032;-50
2024/02/26 12:07:05;;;;;;;5.10;1.83;;;;;;;7.41;63.41;98440.69;10463993;28;20671;-54
2024/02/26 12:12:10;;;;;;;4.28;1.50;;;;;;;7.74;63.25;98433.09;10508622;28;20052;-51
2024/02/26 12:17:22;;;;;;;5.07;2.35;;;;;;;7.90;63.30;98438.84;10505389;28;20192;-48
2024/02/26 12:22:25;;;;;;;3.80;1.75;;;;;;;7.96;62.96;98446.22;10485578;28;20572;-54
2024/02/26 12:27:27;;;;;;;2.78;1.60;;;;;;;8.10;62.45;98452.19;10485139;28;20071;-51
2024/02/26 12:32:30;;;;;;;5.93;2.17;;;;;;;8.12;62.63;98464.16;10515413;28;20044;-54
2024/02/26 12:37:32;;;;;;;2.22;1.52;;;;;;;8.04;62.64;98461.25;10502843;28;20173;-50
2024/02/26 12:42:41;;;;;;;3.53;1.75;;;;;;;8.14;62.42;98467.50;10504196;28;20487;-51
2024/02/26 12:47:46;;;;;;;3.70;2.03;;;;;;;8.39;62.05;98472.56;10482753;28;20040;-53
2024/02/26 12:52:49;;;;;;;3.42;1.73;;;;;;;8.42;61.38;98479.34;10508097;28;20399;-54
2024/02/26 12:57:52;;;;;;;5.18;2.22;;;;;;;8.37;60.92;98473.63;10507897;28;20143;-50
2024/02/26 13:02:55;;;;;;;3.00;1.80;;;;;;;8.79;61.27;98473.06;10491263;28;20476;-53
2024/02/26 13:07:57;;;;;;;4.32;2.20;;;;;;;9.13;60.34;98468.69;10508621;28;20044;-53
2024/02/26 13:13:02;;;;;;;4.40;2.40;;;;;;;8.96;60.65;98477.81;10508202;28;20036;-51
2024/02/26 13:18:12;;;;;;;5.43;1.90;;;;;;;8.91;60.35;98482.56;10509708;28;20040;-51
2024/02/26 13:23:14;;;;;;;3.70;2.05;;;;;;;9.02;60.68;98498.19;10496160;28;20051;-52
2024/02/26 13:28:23;;;;;;;3.20;1.67;;;;;;;8.87;60.58;98499.38;10510226;28;20048;-53
2024/02/26 13:33:28;;;;;;;3.83;1.77;;;;;;;8.82;60.76;98498.88;10510944;28;20192;-54
2024/02/26 13:38:30;;;;;;;4.25;2.05;;;;;;;8.95;60.83;98502.22;10493014;28;20207;-51
2024/02/26 13:43:32;;;;;;;4.22;2.00;;;;;;;8.90;60.70;98506.94;10511235;28;20161;-52
2024/02/26 13:48:35;;;;;;;3.60;2.00;;;;;;;8.79;60.86;98502.53;10508411;28;20040;-53
2024/02/26 13:53:38;;;;;;;4.55;2.08;;;;;;;8.84;60.71;98503.03;10511601;28;20512;-51
2024/02/26 13:58:40;;;;;;;4.85;1.73;;;;;;;8.84;60.82;98504.81;10506909;28;20522;-53
2024/02/26 14:03:42;;;;;;;3.47;1.90;;;;;;;9.08;60.50;98512.53;10503591;28;20521;-52
2024/02/26 14:08:45;;;;;;;2.63;1.45;;;;;;;8.91;60.49;98532.09;10505960;28;20480;-53
2024/02/26 14:13:48;;;;;;;3.35;1.88;;;;;;;8.59;60.97;98524.03;10505569;28;20435;-51
2024/02/26 14:18:50;;;;;;;2.80;1.30;;;;;;;8.90;60.51;98530.41;10510694;28;20515;-53
2024/02/26 14:23:52;;;;;;;4.60;1.75;;;;;;;9.03;60.36;98536.38;10507831;28;20047;-52
2024/02/26 14:28:55;;;;;;;3.10;1.70;;;;;;;9.30;60.00;98530.84;10510356;28;20067;-51
2024/02/26 14:33:58;;;;;;;3.20;1.63;;;;;;;9.48;59.43;98543.28;10505558;28;20040;-51
2024/02/26 14:39:01;;;;;;;2.58;1.63;;;;;;;9.62;59.06;98534.41;10508259;28;20044;-50
2024/02/26 14:44:03;;;;;;;2.92;1.55;;;;;;;9.55;58.83;98538.44;10493323;28;20047;-54
2024/02/26 14:49:05;;;;;;;2.88;1.40;;;;;;;9.49;59.16;98551.94;10512277;28;20052;-51
2024/02/26 14:54:07;;;;;;;3.17;1.70;;;;;;;9.40;59.00;98561.31;10506642;28;20044;-54
2024/02/26 14:59:09;;;;;;;2.20;1.42;;;;;;;9.23;59.17;98567.00;10512293;28;20036;-54
2024/02/26 15:04:11;;;;;;;3.78;2.05;;;;;;;9.06;59.30;98570.03;10491568;28;20466;-55
2024/02/26 15:09:13;;;;;;;2.00;1.42;;;;;;;9.05;59.24;98575.38;10510879;28;20052;-55
2024/02/26 15:14:16;;;;;;;2.10;1.30;;;;;;;9.00;59.38;98580.91;10510868;28;20535;-51
2024/02/26 15:19:18;;;;;;;3.75;1.83;;;;;;;8.99;59.45;98592.31;10512173;28;20500;-51
2024/02/26 15:24:20;;;;;;;1.98;1.20;;;;;;;9.18;59.38;98587.38;10510694;28;20059;-54
2024/02/26 15:29:22;;;;;;;2.60;1.52;;;;;;;9.37;59.01;98587.66;10510839;28;20101;-52
2024/02/26 15:34:24;;;;;;;4.15;1.85;;;;;;;9.22;58.87;98588.78;10510224;28;20139;-53
2024/02/26 15:39:27;;;;;;;2.80;1.40;;;;;;;9.20;58.94;98595.91;10510205;28;20051;-51
2024/02/26 15:44:29;;;;;;;3.55;1.60;;;;;;;9.16;59.33;98599.69;10510518;28;20525;-52
2024/02/26 15:49:31;;;;;;;3.60;1.73;;;;;;;9.19;58.85;98620.34;10511265;28;20135;-52
2024/02/26 15:54:38;;;;;;;2.85;1.55;;;;;;;9.08;58.98;98622.91;10508926;28;20079;-49
2024/02/26 15:59:40;;;;;;;4.47;2.25;;;;;;;8.95;59.26;98631.75;10510315;28;20051;-53
2024/02/26 16:04:43;;;;;;;2.40;1.48;;;;;;;8.89;59.29;98640.88;10509038;28;20380;-52
2024/02/26 16:09:50;;;;;;;5.70;2.00;;;;;;;8.96;59.21;98646.44;10504325;28;20284;-52
2024/02/26 16:14:53;;;;;;;2.17;1.40;;;;;;;9.04;58.96;98655.38;10504780;28;20040;-52
2024/02/26 16:19:56;;;;;;;4.70;2.05;;;;;;;9.07;58.92;98664.75;10489669;28;20774;-53
2024/02/26 16:24:59;;;;;;;2.72;1.50;;;;;;;9.10;58.85;98670.56;10508458;28;20466;-54
2024/02/26 16:30:04;;;;;;;3.70;1.58;;;;;;;9.07;58.68;98683.00;10507819;28;20356;-53
2024/02/26 16:35:07;;;;;;;3.15;1.70;;;;;;;9.12;59.03;98696.53;10491625;28;20048;-53
2024/02/26 16:40:15;;;;;;;4.45;1.70;;;;;;;9.03;58.79;98703.28;10506939;28;20135;-52
2024/02/26 16:45:17;;;;;;;2.65;1.60;;;;;;;8.93;59.05;98704.88;10509719;28;20535;-51
2024/02/26 16:50:20;;;;;;;2.13;1.42;;;;;;;8.96;59.02;98711.63;10516240;28;20056;-52
2024/02/26 16:55:24;;;;;;;3.13;1.80;;;;;;;8.90;58.90;98718.13;10518108;28;20066;-51
2024/02/26 17:00:26;;;;;;;3.17;1.80;;;;;;;8.88;58.87;98722.63;10531737;28;20055;-51
2024/02/26 17:05:28;;;;;;;3.97;1.70;;;;;;;8.85;59.03;98722.84;10514262;28;20044;-49
2024/02/26 17:10:30;;;;;;;3.97;1.90;;;;;;;8.75;58.99;98732.28;10515145;28;20047;-53
2024/02/26 17:15:32;;;;;;;3.42;1.83;;;;;;;8.73;59.17;98744.56;10515922;28;20058;-49
2024/02/26 17:20:36;;;;;;;4.72;1.90;;;;;;;8.70;59.13;98742.19;10512680;28;20093;-52
2024/02/26 17:25:38;;;;;;;3.47;1.70;;;;;;;8.68;59.33;98754.50;10515794;28;20044;-53
2024/02/26 17:30:40;;;;;;;3.70;1.60;;;;;;;8.68;59.67;98764.91;10514971;28;20511;-49
2024/02/26 17:35:43;;;;;;;4.32;1.77;;;;;;;8.70;59.64;98768.25;10516060;28;20066;-52
2024/02/26 17:40:45;;;;;;;3.67;2.30;;;;;;;8.64;59.70;98771.28;10495422;28;20565;-52
2024/02/26 17:45:47;;;;;;;3.45;1.77;;;;;;;8.54;59.69;98788.50;10516119;28;20051;-51
2024/02/26 17:50:49;;;;;;;5.00;2.40;;;;;;;8.49;59.71;98790.59;10513823;28;20143;-51
2024/02/26 17:55:51;;;;;;;5.10;1.92;;;;;;;8.53;59.40;98808.50;10513306;28;20044;-52
2024/02/26 18:00:54;;;;;;;4.43;2.13;;;;;;;8.57;59.35;98809.13;10492916;28;20377;-54
2024/02/26 18:05:59;;;;;;;3.90;2.10;;;;;;;8.55;59.45;98814.44;10512803;28;20488;-52
2024/02/26 18:11:01;;;;;;;3.75;2.03;;;;;;;8.52;59.42;98829.47;10512199;28;20131;-52
2024/02/26 18:16:03;;;;;;;2.70;1.75;;;;;;;8.51;59.59;98833.00;10512168;28;20250;-54
2024/02/26 18:21:06;;;;;;;5.50;2.58;;;;;;;8.49;59.40;98843.53;10473082;28;20212;-52
2024/02/26 18:26:09;;;;;;;5.22;2.75;;;;;;;8.51;59.35;98846.88;10510201;28;20135;-51
2024/02/26 18:31:11;;;;;;;5.75;2.70;;;;;;;8.48;59.33;98848.84;10489449;28;20134;-52
2024/02/26 18:36:16;;;;;;;5.07;2.33;;;;;;;8.42;59.02;98862.31;10510434;28;20499;-54
2024/02/26 18:41:22;;;;;;;5.35;2.42;;;;;;;8.45;58.74;98868.13;10489621;28;20048;-54
2024/02/26 18:46:24;;;;;;;7.15;2.75;;;;;;;8.47;58.88;98881.91;10510435;28;20411;-54
2024/02/26 18:51:26;;;;;;;9.88;2.83;;;;;;;8.47;58.55;98897.53;10511715;28;20052;-54
2024/02/26 18:56:29;;;;;;;5.15;2.75;;;;;;;8.44;59.05;98909.94;10511750;28;20059;-52
2024/02/26 19:01:34;;;;;;;5.03;2.90;;;;;;;8.39;59.19;98917.22;10510339;28;20044;-50
2024/02/26 19:06:38;;;;;;;5.32;2.83;;;;;;;8.40;59.14;98930.16;10514525;28;20744;-60
2024/02/26 19:11:48;;;;;;;4.75;2.80;;;;;;;8.37;59.23;98935.56;10515614;28;20607;-60
2024/02/26 19:16:51;;;;;;;5.83;3.17;;;;;;;8.36;59.34;98940.88;10512116;28;20044;-61
2024/02/26 19:21:55;;;;;;;6.30;2.63;;;;;;;8.36;59.29;98956.50;10509690;28;20048;-60
2024/02/26 19:26:57;;;;;;;4.95;2.67;;;;;;;8.31;59.20;98955.97;10509651;28;20051;-61
2024/02/26 19:32:03;;;;;;;7.05;2.72;;;;;;;8.27;59.22;98964.91;10509883;28;20050;-60
2024/02/26 19:37:05;;;;;;;6.88;3.22;;;;;;;8.24;59.14;98973.75;10512026;28;20046;-60
2024/02/26 19:42:07;;;;;;;8.25;3.35;;;;;;;8.28;58.87;98979.63;10498253;28;20040;-60
2024/02/26 19:47:09;;;;;;;7.25;3.20;;;;;;;8.17;59.22;98989.88;10515621;28;20071;-60
2024/02/26 19:52:11;;;;;;;7.07;2.95;;;;;;;8.16;59.40;98996.06;10514320;28;20064;-60
2024/02/26 19:57:13;;;;;;;4.82;2.72;;;;;;;8.19;59.38;99001.88;10510620;28;20091;-60
2024/02/26 20:02:16;;;;;;;4.93;2.53;;;;;;;8.19;59.57;99019.28;10508353;28;20056;-60
2024/02/26 20:07:20;;;;;;;4.78;2.85;;;;;;;8.15;58.88;99021.25;10504455;28;20164;-60
2024/02/26 20:12:22;;;;;;;5.47;2.50;;;;;;;8.08;58.57;99032.94;10506267;28;20040;-60
2024/02/26 20:17:24;;;;;;;4.88;2.60;;;;;;;8.02;58.14;99042.00;10511800;28;20059;-60
2024/02/26 20:22:27;;;;;;;5.72;2.90;;;;;;;8.11;58.29;99045.81;10509007;28;20044;-61
2024/02/26 20:27:30;;;;;;;6.97;2.88;;;;;;;8.10;58.31;99045.91;10507682;28;20044;-60
2024/02/26 20:32:33;;;;;;;5.10;3.08;;;;;;;8.20;58.43;99060.84;10510057;28;20066;-60
2024/02/26 20:37:36;;;;;;;6.60;3.00;;;;;;;8.20;58.37;99081.69;10511608;28;20032;-60
2024/02/26 20:42:39;;;;;;;5.82;2.83;;;;;;;8.28;58.13;99079.41;10493421;28;20089;-60
2024/02/26 20:47:41;;;;;;;6.63;3.28;;;;;;;8.23;57.74;99091.91;10511205;28;20475;-60
2024/02/26 20:52:43;;;;;;;6.15;2.83;;;;;;;8.27;57.78;99096.00;10509099;28;20044;-60
2024/02/26 20:57:46;;;;;;;7.78;3.40;;;;;;;8.24;57.66;99105.78;10526747;28;20032;-60
2024/02/26 21:02:49;;;;;;;8.52;3.20;;;;;;;8.23;57.88;99111.91;10528221;28;20420;-61
2024/02/26 21:07:54;;;;;;;5.80;2.95;;;;;;;8.27;57.81;99113.38;10496032;28;20223;-60
2024/02/26 21:12:59;;;;;;;6.43;3.53;;;;;;;8.22;57.47;99125.88;10511513;28;20054;-60
2024/02/26 21:18:02;;;;;;;6.22;3.63;;;;;;;8.23;57.30;99135.34;10513270;28;20067;-61
2024/02/26 21:23:07;;;;;;;5.80;3.28;;;;;;;8.26;57.39;99149.00;10493609;28;20071;-61
2024/02/26 21:28:12;;;;;;;5.30;2.88;;;;;;;8.28;57.91;99152.34;10512779;28;20404;-61
2024/02/26 21:33:14;;;;;;;7.10;3.40;;;;;;;8.35;57.58;99171.06;10497508;28;20291;-61
2024/02/26 21:38:19;;;;;;;7.95;3.20;;;;;;;8.36;57.82;99167.53;10518723;28;20036;-61
2024/02/26 21:43:29;;;;;;;6.10;3.38;;;;;;;8.29;57.64;99174.03;10520805;28;20462;-61
2024/02/26 21:48:34;;;;;;;7.03;4.00;;;;;;;8.33;57.72;99178.13;10519731;28;20048;-61
2024/02/26 21:53:41;;;;;;;8.90;3.90;;;;;;;8.30;57.73;99186.16;10498358;28;20078;-61
2024/02/26 21:58:44;;;;;;;8.30;3.78;;;;;;;8.23;57.80;99185.69;10519018;28;20492;-61
2024/02/26 22:03:49;;;;;;;8.30;4.20;;;;;;;8.27;57.80;99196.75;10518387;28;20082;-61
2024/02/26 22:08:54;;;;;;;8.02;3.97;;;;;;;8.28;57.78;99199.25;10517960;28;20052;-60
2024/02/26 22:13:58;;;;;;;7.75;4.30;;;;;;;8.26;57.67;99213.31;10517784;28;20139;-61
2024/02/26 22:19:01;;;;;;;9.77;4.38;;;;;;;8.27;57.89;99215.81;10518788;28;20704;-61
2024/02/26 22:24:06;;;;;;;8.98;4.28;;;;;;;8.23;57.98;99218.72;10517023;28;20135;-62
2024/02/26 22:29:08;;;;;;;8.75;4.53;;;;;;;8.26;57.96;99227.16;10518342;28;20059;-61
2024/02/26 22:34:10;;;;;;;9.10;4.47;;;;;;;8.27;57.95;99228.00;10517839;28;20412;-61
2024/02/26 22:39:13;;;;;;;9.75;5.22;;;;;;;8.06;57.89;99227.50;10501705;28;20117;-61
2024/02/26 22:44:16;;;;;;;7.90;4.50;;;;;;;8.12;58.21;99234.16;10517372;28;20044;-61
2024/02/26 22:49:18;;;;;;;9.25;5.07;;;;;;;8.01;58.15;99240.00;10517297;28;20377;-61
2024/02/26 22:54:20;;;;;;;10.90;5.25;;;;;;;8.08;58.34;99245.66;10516740;28;20047;-61
2024/02/26 22:59:22;;;;;;;9.90;5.40;;;;;;;7.96;58.24;99249.81;10517413;28;20060;-61
2024/02/26 23:04:25;;;;;;;10.60;5.22;;;;;;;7.93;58.49;99263.88;10516122;28;20043;-61
2024/02/26 23:09:28;;;;;;;11.30;5.70;;;;;;;7.94;58.58;99267.31;10483019;28;20048;-61
2024/02/26 23:14:32;;;;;;;11.40;5.47;;;;;;;8.06;58.55;99276.19;10516474;28;20048;-61
2024/02/26 23:19:34;;;;;;;11.73;6.07;;;;;;;8.04;58.74;99277.09;10516215;28;20048;-61
2024/02/26 23:24:37;;;;;;;9.57;5.40;;;;;;;8.01;58.82;99279.03;10514659;28;20070;-61
2024/02/26 23:29:39;;;;;;;10.88;5.57;;;;;;;7.95;58.98;99282.84;10530953;27;20407;-61
2024/02/26 23:34:41;;;;;;;8.77;5.20;;;;;;;8.01;59.27;99282.50;10481638;28;20388;-61
2024/02/26 23:39:43;;;;;;;10.85;5.88;;;;;;;8.03;59.16;99279.78;10497839;28;20075;-61
2024/02/26 23:44:45;;;;;;;11.23;6.32;;;;;;;8.02;59.42;99284.16;10514839;28;20036;-62
2024/02/26 23:49:48;;;;;;;11.68;5.70;;;;;;;8.02;59.49;99284.16;10514815;28;20308;-61